createdAt,value
2022-12-28T00:00:47.871Z,3.90
2022-12-28T00:05:53.688Z,4.00
2022-12-28T00:11:08.663Z,4.00
2022-12-28T00:16:20.638Z,4.10
2022-12-28T00:21:25.772Z,4.20
2022-12-28T00:26:31.670Z,4.30
2022-12-28T00:31:35.346Z,4.30
2022-12-28T00:37:09.059Z,4.40
2022-12-28T00:42:03.709Z,4.50
2022-12-28T00:47:07.030Z,4.50
2022-12-28T00:52:12.297Z,4.70
2022-12-28T00:57:16.426Z,4.70
2022-12-28T01:02:19.609Z,4.80
2022-12-28T01:07:26.513Z,4.70
2022-12-28T01:12:34.606Z,4.90
2022-12-28T01:17:40.924Z,4.90
2022-12-28T01:22:45.920Z,5.00
2022-12-28T01:27:51.117Z,5.00
2022-12-28T01:32:54.609Z,5.00
2022-12-28T01:37:59.227Z,5.00
2022-12-28T01:43:04.439Z,5.00
2022-12-28T01:48:19.425Z,5.10
2022-12-28T01:53:24.127Z,5.00
2022-12-28T01:58:31.229Z,5.00
2022-12-28T02:03:35.546Z,5.10
2022-12-28T02:08:45.327Z,5.00
2022-12-28T02:13:51.268Z,4.90
2022-12-28T02:18:55.328Z,4.70
2022-12-28T02:24:44.781Z,4.50
2022-12-28T02:29:57.874Z,4.50
2022-12-28T02:35:06.798Z,4.50
2022-12-28T02:40:15.357Z,4.40
2022-12-28T02:45:54.223Z,4.40
2022-12-28T02:51:08.447Z,4.40
2022-12-28T02:56:25.234Z,4.30
2022-12-28T03:01:49.508Z,4.30
2022-12-28T03:07:18.620Z,4.20
2022-12-28T03:12:29.815Z,4.10
2022-12-28T03:17:55.330Z,4.20
2022-12-28T03:23:21.734Z,4.10
2022-12-28T03:28:48.286Z,4.30
2022-12-28T03:34:06.824Z,4.10
2022-12-28T03:39:30.857Z,4.20
2022-12-28T03:44:36.128Z,4.30
2022-12-28T03:49:41.839Z,4.20
2022-12-28T03:54:46.818Z,4.20
2022-12-28T03:59:52.018Z,4.10
2022-12-28T04:04:56.632Z,4.00
2022-12-28T04:10:00.253Z,4.00
2022-12-28T04:15:04.872Z,4.00
2022-12-28T04:20:11.244Z,4.00
2022-12-28T04:25:14.996Z,4.00
2022-12-28T04:30:20.323Z,3.90
2022-12-28T04:35:26.247Z,4.00
2022-12-28T04:40:30.795Z,4.00
2022-12-28T04:45:34.076Z,4.10
2022-12-28T04:50:38.971Z,4.20
2022-12-28T04:55:42.166Z,4.10
2022-12-28T05:00:45.594Z,4.00
2022-12-28T05:05:50.663Z,4.00
2022-12-28T05:10:53.933Z,3.90
2022-12-28T05:16:01.858Z,3.90
2022-12-28T05:21:09.043Z,3.90
2022-12-28T05:26:14.784Z,4.10
2022-12-28T05:31:19.805Z,4.10
2022-12-28T05:36:26.626Z,4.20
2022-12-28T05:41:30.715Z,4.20
2022-12-28T05:46:35.362Z,4.30
2022-12-28T05:51:40.376Z,4.20
2022-12-28T05:56:43.853Z,4.20
2022-12-28T06:01:47.147Z,4.20
2022-12-28T06:06:51.907Z,4.30
2022-12-28T06:11:55.122Z,4.30
2022-12-28T06:16:58.677Z,4.40
2022-12-28T06:22:03.655Z,4.40
2022-12-28T06:27:07.308Z,4.50
2022-12-28T06:32:10.930Z,4.80
2022-12-28T06:37:16.628Z,4.90
2022-12-28T06:42:20.233Z,4.70
2022-12-28T06:47:23.443Z,4.80
2022-12-28T06:52:28.052Z,4.80
2022-12-28T06:57:31.300Z,4.70
2022-12-28T07:02:34.774Z,4.80
2022-12-28T07:07:39.405Z,4.80
2022-12-28T07:12:42.587Z,4.70
2022-12-28T07:17:45.845Z,4.70
2022-12-28T07:22:50.522Z,4.60
2022-12-28T07:27:54.426Z,4.60
2022-12-28T07:32:57.727Z,4.70
2022-12-28T07:38:02.235Z,4.70
2022-12-28T07:43:05.539Z,4.80
2022-12-28T07:48:08.739Z,4.80
2022-12-28T07:53:17.443Z,4.80
2022-12-28T07:58:25.535Z,4.90
2022-12-28T08:03:28.722Z,4.90
2022-12-28T08:08:34.529Z,4.90
2022-12-28T08:13:39.412Z,4.90
2022-12-28T08:18:43.014Z,5.00
2022-12-28T08:23:48.614Z,5.20
2022-12-28T08:28:52.759Z,5.20
2022-12-28T08:33:57.448Z,5.20
2022-12-28T08:39:03.632Z,5.30
2022-12-28T08:44:07.447Z,5.40
2022-12-28T08:49:11.970Z,5.50
2022-12-28T08:54:17.105Z,5.50
2022-12-28T08:59:20.772Z,5.70
2022-12-28T09:04:24.363Z,5.80
2022-12-28T09:09:28.880Z,5.80
2022-12-28T09:14:32.053Z,5.90
2022-12-28T09:19:35.845Z,5.80
2022-12-28T09:24:40.585Z,5.90
2022-12-28T09:29:43.960Z,6.00
2022-12-28T09:34:47.435Z,6.00
2022-12-28T09:39:54.564Z,6.20
2022-12-28T09:45:04.563Z,6.40
2022-12-28T09:50:29.802Z,6.50
2022-12-28T09:55:36.672Z,6.70
2022-12-28T10:00:44.741Z,6.90
2022-12-28T10:05:49.623Z,7.00
2022-12-28T10:10:59.357Z,7.00
2022-12-28T10:16:05.342Z,7.00
2022-12-28T10:21:08.988Z,7.00
2022-12-28T10:26:17.685Z,7.10
2022-12-28T10:31:32.571Z,6.90
2022-12-28T10:36:36.037Z,6.80
2022-12-28T10:41:41.116Z,6.80
2022-12-28T10:46:52.742Z,6.70
2022-12-28T10:52:05.895Z,6.90
2022-12-28T10:57:17.239Z,7.00
2022-12-28T11:02:27.929Z,7.30
2022-12-28T11:07:34.030Z,7.60
2022-12-28T11:12:43.096Z,7.60
2022-12-28T11:17:52.639Z,7.60
2022-12-28T11:22:56.022Z,7.70
2022-12-28T11:28:05.194Z,7.60
2022-12-28T11:33:28.737Z,7.50
2022-12-28T11:38:42.382Z,7.40
2022-12-28T11:43:52.458Z,7.60
2022-12-28T11:48:58.831Z,7.90
2022-12-28T11:54:03.943Z,8.10
2022-12-28T11:59:23.208Z,8.10
2022-12-28T12:04:38.614Z,8.10
2022-12-28T12:09:43.757Z,8.20
2022-12-28T12:14:51.463Z,8.60
2022-12-28T12:19:58.925Z,8.70
2022-12-28T12:25:07.650Z,8.90
2022-12-28T12:30:17.069Z,8.90
2022-12-28T12:35:22.384Z,9.10
2022-12-28T12:40:59.771Z,9.30
2022-12-28T12:46:29.269Z,9.10
2022-12-28T12:51:39.567Z,9.00
2022-12-28T12:56:49.613Z,9.00
2022-12-28T13:02:01.039Z,9.20
2022-12-28T13:07:06.271Z,9.20
2022-12-28T13:12:15.833Z,9.20
2022-12-28T13:17:22.595Z,9.10
2022-12-28T13:22:27.626Z,8.90
2022-12-28T13:27:35.163Z,8.90
2022-12-28T13:32:51.119Z,9.10
2022-12-28T13:38:02.981Z,9.60
2022-12-28T13:43:41.217Z,9.80
2022-12-28T13:48:49.978Z,9.50
2022-12-28T13:53:59.872Z,9.40
2022-12-28T13:59:07.622Z,9.30
2022-12-28T14:09:39.160Z,8.80
2022-12-28T14:14:44.308Z,8.70
2022-12-28T14:19:50.089Z,8.90
2022-12-28T14:25:01.179Z,8.70
2022-12-28T14:30:07.916Z,8.70
2022-12-28T14:35:19.357Z,8.80
2022-12-28T14:40:30.529Z,8.60
2022-12-28T14:51:23.890Z,8.70
2022-12-28T14:56:33.340Z,8.60
2022-12-28T15:01:42.749Z,8.50
2022-12-28T15:06:47.294Z,8.60
2022-12-28T15:12:09.495Z,8.60
2022-12-28T15:17:13.469Z,8.60
2022-12-28T15:22:18.617Z,8.50
2022-12-28T15:27:21.775Z,8.30
2022-12-28T15:32:24.985Z,8.40
2022-12-28T15:37:29.617Z,8.30
2022-12-28T15:42:39.827Z,8.40
2022-12-28T15:47:44.017Z,8.20
2022-12-28T15:52:49.000Z,8.00
2022-12-28T15:57:52.346Z,7.70
2022-12-28T16:02:55.757Z,7.50
2022-12-28T16:08:00.402Z,7.60
2022-12-28T16:13:03.695Z,7.70
2022-12-28T16:18:06.920Z,7.70
2022-12-28T16:23:11.506Z,7.80
2022-12-28T16:28:14.808Z,7.90
2022-12-28T16:33:18.251Z,8.10
2022-12-28T16:38:24.756Z,8.10
2022-12-28T16:43:27.941Z,8.20
2022-12-28T16:48:31.712Z,8.30
2022-12-28T16:53:37.233Z,8.40
2022-12-28T16:58:43.140Z,8.40
2022-12-28T17:03:48.647Z,8.40
2022-12-28T17:08:53.461Z,8.50
2022-12-28T17:14:00.440Z,8.40
2022-12-28T17:19:04.643Z,8.50
2022-12-28T17:24:09.594Z,8.50
2022-12-28T17:29:12.907Z,8.30
2022-12-28T17:34:16.980Z,8.40
2022-12-28T17:39:21.610Z,8.30
2022-12-28T17:44:24.815Z,8.20
2022-12-28T17:49:28.111Z,8.20
2022-12-28T17:54:32.943Z,8.10
2022-12-28T17:59:36.530Z,8.20
2022-12-28T18:04:40.699Z,8.20
2022-12-28T18:09:45.723Z,8.30
2022-12-28T18:14:49.150Z,8.20
2022-12-28T18:19:55.820Z,8.30
2022-12-28T18:25:00.696Z,8.40
2022-12-28T18:30:04.871Z,8.40
2022-12-28T18:35:10.090Z,8.40
2022-12-28T18:40:16.758Z,8.40
2022-12-28T18:45:20.306Z,8.40
2022-12-28T18:50:23.961Z,8.40
2022-12-28T18:55:28.877Z,8.40
2022-12-28T19:00:32.962Z,8.40
2022-12-28T19:05:39.152Z,8.40
2022-12-28T19:10:50.222Z,8.10
2022-12-28T19:15:53.926Z,7.90
2022-12-28T19:20:58.316Z,7.70
2022-12-28T19:26:05.416Z,7.70
2022-12-28T19:31:09.257Z,7.60
2022-12-28T19:36:12.797Z,7.50
2022-12-28T19:41:17.588Z,7.40
2022-12-28T19:46:24.849Z,7.30
2022-12-28T19:51:32.115Z,7.40
2022-12-28T19:56:38.480Z,7.30
2022-12-28T20:01:42.390Z,7.10
2022-12-28T20:06:48.491Z,7.00
2022-12-28T20:11:53.982Z,6.90
2022-12-28T20:16:57.636Z,7.00
2022-12-28T20:22:04.262Z,6.80
2022-12-28T20:27:09.710Z,7.00
2022-12-28T20:32:13.917Z,7.10
2022-12-28T20:37:18.055Z,7.00
2022-12-28T20:42:41.891Z,6.90
2022-12-28T20:47:45.057Z,6.80
2022-12-28T20:52:51.998Z,6.90
2022-12-28T20:57:56.669Z,6.90
2022-12-28T21:02:59.995Z,6.90
2022-12-28T21:08:03.225Z,6.90
2022-12-28T21:13:07.946Z,7.00
2022-12-28T21:18:11.289Z,7.10
2022-12-28T21:23:15.229Z,7.20
2022-12-28T21:28:19.727Z,7.20
2022-12-28T21:33:23.345Z,7.20
2022-12-28T21:38:27.364Z,7.30
2022-12-28T21:43:32.223Z,7.40
2022-12-28T21:48:36.738Z,7.30
2022-12-28T21:53:39.975Z,7.40
2022-12-28T21:58:46.931Z,7.40
2022-12-28T22:04:09.203Z,7.50
2022-12-28T22:09:30.896Z,7.30
2022-12-28T22:14:35.436Z,7.30
2022-12-28T22:19:38.562Z,7.30
2022-12-28T22:24:41.663Z,7.50
2022-12-28T22:29:46.129Z,7.70
2022-12-28T22:34:49.665Z,7.70
2022-12-28T22:39:52.988Z,7.60
2022-12-28T22:44:57.576Z,7.80
2022-12-28T22:50:00.790Z,7.80
2022-12-28T22:55:04.927Z,7.90
2022-12-28T23:00:13.896Z,7.90
2022-12-28T23:05:19.493Z,7.80
2022-12-28T23:10:22.748Z,7.60
2022-12-28T23:15:27.134Z,7.50
2022-12-28T23:20:59.601Z,7.40
2022-12-28T23:26:21.461Z,7.50
2022-12-28T23:31:27.725Z,7.50
2022-12-28T23:36:33.500Z,7.40
2022-12-28T23:41:48.852Z,7.50
2022-12-28T23:46:58.854Z,7.50
2022-12-28T23:52:02.473Z,7.50
2022-12-28T23:57:05.711Z,7.50
